createdAt,value
2018-01-28T00:00:02.764Z,14.77
2018-01-28T00:02:30.240Z,15.17
2018-01-28T00:04:57.749Z,14.70
2018-01-28T00:07:25.220Z,19.15
2018-01-28T00:09:52.720Z,14.75
2018-01-28T00:12:20.257Z,15.00
2018-01-28T00:14:48.508Z,15.63
2018-01-28T00:17:15.988Z,14.95
2018-01-28T00:19:44.256Z,17.08
2018-01-28T00:22:13.673Z,14.75
2018-01-28T00:24:41.289Z,17.35
2018-01-28T00:27:09.540Z,14.90
2018-01-28T00:29:37.032Z,15.30
2018-01-28T00:32:05.301Z,16.30
2018-01-28T00:34:32.868Z,14.68
2018-01-28T00:37:00.348Z,15.70
2018-01-28T00:39:27.903Z,14.02
2018-01-28T00:41:55.360Z,15.85
2018-01-28T00:44:22.840Z,14.02
2018-01-28T00:46:50.300Z,14.93
2018-01-28T00:49:17.788Z,14.68
2018-01-28T00:51:45.352Z,13.40
2018-01-28T00:54:13.285Z,14.50
2018-01-28T00:56:40.772Z,13.00
2018-01-28T00:59:08.245Z,17.25
2018-01-28T01:01:35.704Z,15.10
2018-01-28T01:04:03.262Z,13.90
2018-01-28T01:06:30.740Z,12.85
2018-01-28T01:08:58.352Z,15.73
2018-01-28T01:11:25.825Z,14.00
2018-01-28T01:13:53.504Z,14.20
2018-01-28T01:16:20.983Z,14.18
2018-01-28T01:18:49.958Z,15.75
2018-01-28T01:21:17.592Z,13.60
2018-01-28T01:23:45.828Z,17.02
2018-01-28T01:26:13.292Z,17.00
2018-01-28T01:28:40.780Z,16.35
2018-01-28T01:31:08.444Z,14.82
2018-01-28T01:33:35.912Z,14.02
2018-01-28T01:36:03.493Z,15.38
2018-01-28T01:38:31.084Z,16.85
2018-01-28T01:40:59.400Z,17.10
2018-01-28T01:43:26.886Z,14.47
2018-01-28T01:45:54.396Z,13.97
2018-01-28T01:48:21.973Z,15.57
2018-01-28T01:50:49.544Z,15.50
2018-01-28T01:53:17.008Z,15.93
2018-01-28T01:55:44.585Z,15.65
2018-01-28T01:58:12.054Z,15.55
2018-01-28T02:00:39.615Z,17.30
2018-01-28T02:03:07.198Z,15.55
2018-01-28T02:05:34.810Z,16.08
2018-01-28T02:08:02.342Z,17.37
2018-01-28T02:10:29.892Z,17.48
2018-01-28T02:12:57.499Z,17.05
2018-01-28T02:15:24.961Z,15.20
2018-01-28T02:17:52.512Z,16.40
2018-01-28T02:20:19.984Z,16.52
2018-01-28T02:22:47.444Z,15.87
2018-01-28T02:25:14.934Z,16.30
2018-01-28T02:27:42.407Z,18.40
2018-01-28T02:30:09.972Z,18.58
2018-01-28T02:32:37.449Z,17.27
2018-01-28T02:35:04.955Z,18.62
2018-01-28T02:37:33.200Z,18.00
2018-01-28T02:40:00.686Z,15.80
2018-01-28T02:42:28.168Z,17.25
2018-01-28T02:44:55.640Z,18.50
2018-01-28T02:47:23.893Z,17.83
2018-01-28T02:49:51.514Z,19.37
2018-01-28T02:52:19.753Z,16.12
2018-01-28T02:54:47.227Z,17.90
2018-01-28T02:57:14.800Z,19.83
2018-01-28T02:59:42.367Z,19.17
2018-01-28T03:02:09.831Z,21.75
2018-01-28T03:04:37.312Z,18.85
2018-01-28T03:07:04.876Z,19.50
2018-01-28T03:09:32.347Z,17.77
2018-01-28T03:11:59.816Z,19.35
2018-01-28T03:14:28.044Z,18.52
2018-01-28T03:16:55.571Z,19.27
2018-01-28T03:19:23.047Z,21.62
2018-01-28T03:21:50.612Z,19.77
2018-01-28T03:24:18.076Z,20.88
2018-01-28T03:26:45.560Z,19.20
2018-01-28T03:29:13.220Z,20.42
2018-01-28T03:31:40.684Z,20.37
2018-01-28T03:34:08.140Z,17.40
2018-01-28T03:36:35.624Z,17.45
2018-01-28T03:39:03.092Z,19.00
2018-01-28T03:41:30.685Z,18.35
2018-01-28T03:43:58.152Z,19.12
2018-01-28T03:46:25.611Z,18.48
2018-01-28T03:48:53.080Z,19.95
2018-01-28T03:51:20.539Z,18.20
2018-01-28T03:53:48.012Z,17.90
2018-01-28T03:56:15.495Z,17.25
2018-01-28T03:58:42.955Z,16.23
2018-01-28T04:01:10.416Z,14.32
2018-01-28T04:03:37.896Z,16.67
2018-01-28T04:06:05.373Z,15.70
2018-01-28T04:08:32.940Z,16.08
2018-01-28T04:11:00.412Z,17.58
2018-01-28T04:13:27.868Z,16.48
2018-01-28T04:15:55.452Z,16.42
2018-01-28T04:18:22.911Z,16.55
2018-01-28T04:20:50.392Z,14.85
2018-01-28T04:23:17.876Z,16.60
2018-01-28T04:25:45.340Z,16.02
2018-01-28T04:28:12.829Z,14.27
2018-01-28T04:30:41.061Z,14.63
2018-01-28T04:33:08.540Z,15.55
2018-01-28T04:35:36.004Z,16.17
2018-01-28T04:38:03.472Z,16.50
2018-01-28T04:40:30.953Z,14.20
2018-01-28T04:42:58.416Z,15.23
2018-01-28T04:45:25.877Z,14.93
2018-01-28T04:47:53.380Z,15.65
2018-01-28T04:50:20.812Z,14.05
2018-01-28T04:52:48.280Z,13.93
2018-01-28T04:55:15.744Z,16.23
2018-01-28T04:57:43.212Z,14.45
2018-01-28T05:00:10.679Z,14.95
2018-01-28T05:02:38.137Z,14.68
2018-01-28T05:05:05.707Z,14.85
2018-01-28T05:07:33.923Z,16.63
2018-01-28T05:10:01.384Z,17.00
2018-01-28T05:12:28.849Z,16.80
2018-01-28T05:14:56.360Z,17.60
2018-01-28T05:17:23.816Z,18.23
2018-01-28T05:19:51.301Z,17.83
2018-01-28T05:22:18.760Z,21.75
2018-01-28T05:24:46.223Z,20.52
2018-01-28T05:27:13.691Z,23.67
2018-01-28T05:29:41.159Z,22.80
2018-01-28T05:32:08.620Z,22.10
2018-01-28T05:34:36.081Z,19.83
2018-01-28T05:37:03.631Z,19.50
2018-01-28T05:39:31.848Z,23.27
2018-01-28T05:41:59.336Z,22.90
2018-01-28T05:44:26.788Z,21.80
2018-01-28T05:46:54.252Z,22.00
2018-01-28T05:49:21.756Z,23.20
2018-01-28T05:51:49.212Z,21.47
2018-01-28T05:54:16.796Z,25.23
2018-01-28T05:56:44.267Z,23.33
2018-01-28T05:59:11.775Z,22.33
2018-01-28T06:01:40.000Z,25.67
2018-01-28T06:04:07.460Z,24.85
2018-01-28T06:06:34.927Z,23.90
2018-01-28T06:09:02.396Z,22.95
2018-01-28T06:11:29.863Z,24.98
2018-01-28T06:13:57.415Z,25.20
2018-01-28T06:16:25.667Z,27.83
2018-01-28T06:18:53.131Z,25.52
2018-01-28T06:21:20.596Z,27.67
2018-01-28T06:23:48.069Z,30.33
2018-01-28T06:26:15.532Z,25.33
2018-01-28T06:28:43.004Z,26.08
2018-01-28T06:31:10.463Z,26.12
2018-01-28T06:33:37.928Z,30.40
2018-01-28T06:36:05.417Z,31.27
2018-01-28T06:38:32.876Z,33.05
2018-01-28T06:41:01.220Z,30.70
2018-01-28T06:43:28.696Z,35.47
2018-01-28T06:45:56.151Z,36.25
2018-01-28T06:48:23.629Z,44.75
2018-01-28T06:50:51.092Z,38.13
2018-01-28T06:53:18.552Z,35.17
2018-01-28T06:55:46.785Z,41.08
2018-01-28T06:58:14.260Z,51.42
2018-01-28T07:00:41.731Z,49.72
2018-01-28T07:03:09.987Z,47.03
2018-01-28T07:05:37.459Z,45.53
2018-01-28T07:08:04.932Z,41.92
2018-01-28T07:10:32.419Z,46.78
2018-01-28T07:12:59.900Z,43.75
2018-01-28T07:15:27.372Z,54.78
2018-01-28T07:17:54.864Z,50.88
2018-01-28T07:20:22.339Z,45.67
2018-01-28T07:22:49.804Z,52.95
2018-01-28T07:25:17.296Z,48.35
2018-01-28T07:27:45.596Z,43.35
2018-01-28T07:30:13.817Z,48.80
2018-01-28T07:32:41.284Z,41.40
2018-01-28T07:35:08.900Z,45.28
2018-01-28T07:37:36.360Z,40.77
2018-01-28T07:40:03.819Z,38.43
2018-01-28T07:42:31.300Z,39.33
2018-01-28T07:44:58.804Z,35.87
2018-01-28T07:47:26.272Z,36.00
2018-01-28T07:49:54.496Z,34.30
2018-01-28T07:52:21.968Z,37.58
2018-01-28T07:54:49.436Z,37.25
2018-01-28T07:57:16.915Z,37.88
2018-01-28T07:59:44.379Z,32.65
2018-01-28T08:02:11.846Z,33.35
2018-01-28T08:04:40.076Z,33.90
2018-01-28T08:07:08.319Z,37.50
2018-01-28T08:09:35.822Z,36.78
2018-01-28T08:12:13.224Z,37.38
2018-01-28T08:14:40.726Z,34.70
2018-01-28T08:17:08.195Z,35.25
2018-01-28T08:19:35.672Z,33.60
2018-01-28T08:22:03.234Z,33.22
2018-01-28T08:24:31.456Z,31.95
2018-01-28T08:27:04.747Z,29.27
2018-01-28T08:29:33.816Z,29.20
2018-01-28T08:32:02.060Z,31.80
2018-01-28T08:34:29.545Z,29.92
2018-01-28T08:36:57.048Z,29.50
2018-01-28T08:39:24.531Z,30.65
2018-01-28T08:41:52.757Z,28.73
2018-01-28T08:44:20.216Z,28.63
2018-01-28T08:46:47.696Z,29.37
2018-01-28T08:49:15.159Z,27.70
2018-01-28T08:51:42.617Z,28.95
2018-01-28T08:54:10.088Z,28.92
2018-01-28T08:56:37.571Z,33.50
2018-01-28T08:59:05.036Z,32.15
2018-01-28T09:01:32.497Z,33.25
2018-01-28T09:03:59.960Z,33.38
2018-01-28T09:06:27.430Z,35.80
2018-01-28T09:08:54.983Z,33.35
2018-01-28T09:11:23.355Z,39.70
2018-01-28T09:13:51.587Z,39.08
2018-01-28T09:16:19.048Z,39.92
2018-01-28T09:18:46.524Z,44.13
2018-01-28T09:21:13.988Z,46.15
2018-01-28T09:23:41.617Z,43.38
2018-01-28T09:26:09.076Z,43.97
2018-01-28T09:28:36.538Z,44.63
2018-01-28T09:31:04.006Z,48.78
2018-01-28T09:33:31.468Z,48.97
2018-01-28T09:35:58.947Z,51.97
2018-01-28T09:38:26.412Z,51.92
2018-01-28T09:40:53.882Z,50.53
2018-01-28T09:43:21.364Z,53.05
2018-01-28T09:45:48.932Z,48.35
2018-01-28T09:48:16.545Z,52.97
2018-01-28T09:50:44.781Z,53.58
2018-01-28T09:53:12.262Z,55.40
2018-01-28T09:55:39.748Z,54.55
2018-01-28T09:58:07.308Z,56.72
2018-01-28T10:00:34.772Z,52.55
2018-01-28T10:03:02.291Z,50.17
2018-01-28T10:05:29.749Z,50.10
2018-01-28T10:07:57.272Z,48.08
2018-01-28T10:10:24.744Z,49.92
2018-01-28T10:12:52.436Z,53.10
2018-01-28T10:15:19.996Z,47.65
2018-01-28T10:17:47.512Z,47.80
2018-01-28T10:20:14.983Z,49.65
2018-01-28T10:22:42.474Z,47.15
2018-01-28T10:25:09.940Z,46.90
2018-01-28T10:27:37.551Z,46.22
2018-01-28T10:30:05.115Z,47.53
2018-01-28T10:32:32.791Z,44.83
2018-01-28T10:35:00.277Z,46.50
2018-01-28T10:37:27.882Z,45.65
2018-01-28T10:39:55.504Z,48.45
2018-01-28T10:42:23.122Z,48.90
2018-01-28T10:44:51.352Z,45.90
2018-01-28T10:47:18.820Z,42.10
2018-01-28T10:49:46.283Z,42.97
2018-01-28T10:52:13.776Z,46.45
2018-01-28T10:54:41.290Z,42.55
2018-01-28T10:57:09.521Z,46.72
2018-01-28T10:59:37.003Z,42.97
2018-01-28T11:02:04.476Z,41.95
2018-01-28T11:04:31.954Z,43.60
2018-01-28T11:06:59.560Z,43.40
2018-01-28T11:09:27.821Z,40.55
2018-01-28T11:11:56.135Z,41.90
2018-01-28T11:14:24.372Z,38.42
2018-01-28T11:16:51.844Z,38.60
2018-01-28T11:19:19.324Z,39.20
2018-01-28T11:21:46.808Z,37.75
2018-01-28T11:24:15.122Z,37.20
2018-01-28T11:26:42.681Z,38.63
2018-01-28T11:29:10.916Z,38.47
2018-01-28T11:31:38.395Z,38.63
2018-01-28T11:34:05.869Z,36.30
2018-01-28T11:36:33.328Z,38.08
2018-01-28T11:39:00.807Z,31.40
2018-01-28T11:41:28.292Z,33.38
2018-01-28T11:43:55.776Z,31.92
2018-01-28T11:46:23.248Z,32.25
2018-01-28T11:48:51.480Z,35.88
2018-01-28T11:51:18.956Z,36.43
2018-01-28T11:53:46.420Z,31.58
2018-01-28T11:56:14.048Z,36.58
2018-01-28T11:58:42.311Z,32.35
2018-01-28T12:01:09.780Z,35.60
2018-01-28T12:03:37.248Z,32.90
2018-01-28T12:06:04.732Z,33.88
2018-01-28T12:08:32.209Z,33.45
2018-01-28T12:10:59.692Z,33.25
2018-01-28T12:13:27.957Z,34.13
2018-01-28T12:15:55.620Z,36.42
2018-01-28T12:18:23.204Z,32.00
2018-01-28T12:20:50.668Z,32.23
2018-01-28T12:23:18.236Z,30.88
2018-01-28T12:25:45.708Z,33.53
2018-01-28T12:28:13.184Z,30.05
2018-01-28T12:30:40.649Z,31.55
2018-01-28T12:33:08.120Z,35.67
2018-01-28T12:35:35.603Z,31.15
2018-01-28T12:38:04.592Z,34.97
2018-01-28T12:40:32.060Z,32.83
2018-01-28T12:42:59.529Z,29.80
2018-01-28T12:45:27.011Z,31.02
2018-01-28T12:47:54.484Z,34.70
2018-01-28T12:50:21.948Z,28.45
2018-01-28T12:52:49.423Z,29.48
2018-01-28T12:55:16.908Z,27.67
2018-01-28T12:57:45.175Z,31.20
2018-01-28T13:00:12.637Z,32.03
2018-01-28T13:02:40.108Z,29.70
2018-01-28T13:05:07.596Z,26.10
2018-01-28T13:07:35.061Z,28.02
2018-01-28T13:10:02.541Z,30.33
2018-01-28T13:12:30.785Z,28.87
2018-01-28T13:14:58.248Z,25.40
2018-01-28T13:17:25.719Z,33.03
2018-01-28T13:19:53.207Z,25.55
2018-01-28T13:22:20.777Z,27.50
2018-01-28T13:24:48.355Z,27.25
2018-01-28T13:27:15.837Z,30.05
2018-01-28T13:29:43.296Z,26.52
2018-01-28T13:32:10.764Z,28.75
2018-01-28T13:34:38.236Z,26.60
2018-01-28T13:37:05.725Z,25.65
2018-01-28T13:39:33.969Z,27.77
2018-01-28T13:42:01.436Z,27.92
2018-01-28T13:44:28.906Z,27.45
2018-01-28T13:46:56.384Z,28.85
2018-01-28T13:49:23.848Z,28.87
2018-01-28T13:51:51.317Z,25.00
2018-01-28T13:54:18.825Z,28.52
2018-01-28T13:56:46.311Z,26.10
2018-01-28T13:59:14.542Z,29.60
2018-01-28T14:01:42.016Z,26.58
2018-01-28T14:04:09.551Z,30.30
2018-01-28T14:06:37.029Z,30.08
2018-01-28T14:09:04.503Z,29.70
2018-01-28T14:11:31.964Z,26.73
2018-01-28T14:13:59.509Z,25.58
2018-01-28T14:16:27.741Z,27.35
2018-01-28T14:18:55.289Z,30.97
2018-01-28T14:21:23.521Z,24.90
2018-01-28T14:23:51.016Z,27.42
2018-01-28T14:26:18.501Z,30.77
2018-01-28T14:28:46.754Z,27.00
2018-01-28T14:31:14.254Z,26.75
2018-01-28T14:33:41.730Z,22.13
2018-01-28T14:36:10.024Z,24.52
2018-01-28T14:38:38.280Z,27.40
2018-01-28T14:41:05.933Z,21.25
2018-01-28T14:43:33.404Z,30.10
2018-01-28T14:46:00.879Z,24.87
2018-01-28T14:48:28.364Z,25.15
2018-01-28T14:50:55.835Z,21.73
2018-01-28T14:53:23.304Z,22.35
2018-01-28T14:55:50.788Z,24.20
2018-01-28T14:58:18.266Z,22.80
2018-01-28T15:00:45.726Z,26.40
2018-01-28T15:03:13.212Z,22.20
2018-01-28T15:05:40.689Z,25.12
2018-01-28T15:08:08.944Z,24.30
2018-01-28T15:10:36.613Z,28.65
2018-01-28T15:13:04.085Z,18.62
2018-01-28T15:15:31.589Z,21.60
2018-01-28T15:17:59.174Z,23.73
2018-01-28T15:20:26.704Z,20.10
2018-01-28T15:22:54.274Z,21.50
2018-01-28T15:25:21.736Z,27.37
2018-01-28T15:27:49.521Z,24.55
2018-01-28T15:30:16.984Z,21.67
2018-01-28T15:32:44.462Z,17.55
2018-01-28T15:35:12.144Z,19.15
2018-01-28T15:37:39.616Z,26.12
2018-01-28T15:40:07.085Z,24.58
2018-01-28T15:42:34.564Z,19.87
2018-01-28T15:45:02.196Z,24.48
2018-01-28T15:47:30.436Z,30.27
2018-01-28T15:49:57.915Z,23.27
2018-01-28T15:52:26.194Z,24.55
2018-01-28T15:54:53.655Z,22.17
2018-01-28T15:57:21.141Z,23.05
2018-01-28T15:59:48.712Z,21.33
2018-01-28T16:02:16.183Z,23.83
2018-01-28T16:04:43.653Z,22.98
2018-01-28T16:07:11.237Z,20.98
2018-01-28T16:09:38.696Z,22.83
2018-01-28T16:12:06.260Z,20.20
2018-01-28T16:14:33.732Z,24.98
2018-01-28T16:17:01.205Z,23.02
2018-01-28T16:19:28.695Z,22.30
2018-01-28T16:21:56.937Z,24.45
2018-01-28T16:24:24.393Z,22.13
2018-01-28T16:26:51.901Z,25.40
2018-01-28T16:29:19.372Z,21.92
2018-01-28T16:31:46.848Z,23.10
2018-01-28T16:34:14.347Z,26.23
2018-01-28T16:36:41.812Z,22.77
2018-01-28T16:39:10.044Z,24.58
2018-01-28T16:41:37.533Z,25.65
2018-01-28T16:44:05.004Z,28.85
2018-01-28T16:46:32.487Z,24.50
2018-01-28T16:48:59.972Z,31.87
2018-01-28T16:51:28.204Z,25.62
2018-01-28T16:53:55.688Z,28.30
2018-01-28T16:56:23.156Z,29.63
2018-01-28T16:58:50.622Z,32.60
2018-01-28T17:01:18.084Z,33.40
2018-01-28T17:03:45.620Z,32.35
2018-01-28T17:06:13.933Z,27.13
2018-01-28T17:08:41.400Z,27.25
2018-01-28T17:11:08.881Z,31.30
2018-01-28T17:13:36.348Z,31.23
2018-01-28T17:16:03.973Z,29.60
2018-01-28T17:18:32.216Z,26.25
2018-01-28T17:20:59.694Z,26.20
2018-01-28T17:23:27.187Z,31.62
2018-01-28T17:25:54.672Z,31.75
2018-01-28T17:28:22.905Z,29.08
2018-01-28T17:30:50.376Z,25.85
2018-01-28T17:33:17.856Z,27.75
2018-01-28T17:35:48.144Z,30.67
2018-01-28T17:38:16.389Z,22.73
2018-01-28T17:40:43.877Z,26.25
2018-01-28T17:43:11.352Z,24.30
2018-01-28T17:45:38.832Z,24.40
2018-01-28T17:48:07.077Z,29.12
2018-01-28T17:50:34.556Z,28.98
2018-01-28T17:53:02.040Z,24.12
2018-01-28T17:55:29.653Z,23.55
2018-01-28T17:57:57.177Z,26.98
2018-01-28T18:00:24.744Z,24.40
2018-01-28T18:02:52.319Z,23.33
2018-01-28T18:05:19.896Z,22.65
2018-01-28T18:07:47.364Z,22.30
2018-01-28T18:10:14.831Z,21.52
2018-01-28T18:12:42.305Z,24.58
2018-01-28T18:15:09.771Z,27.83
2018-01-28T18:17:37.260Z,24.58
2018-01-28T18:20:05.509Z,24.27
2018-01-28T18:22:33.115Z,25.02
2018-01-28T18:25:00.695Z,25.70
2018-01-28T18:27:28.964Z,25.80
2018-01-28T18:29:56.536Z,27.33
2018-01-28T18:32:24.103Z,25.37
2018-01-28T18:34:51.581Z,29.03
2018-01-28T18:37:19.057Z,26.77
2018-01-28T18:39:46.612Z,22.75
2018-01-28T18:42:14.096Z,26.62
2018-01-28T18:44:41.602Z,28.45
2018-01-28T18:47:09.128Z,29.42
2018-01-28T18:49:36.644Z,29.20
2018-01-28T18:52:04.108Z,28.27
2018-01-28T18:54:31.578Z,26.95
2018-01-28T18:56:59.870Z,28.83
2018-01-28T18:59:28.215Z,28.02
2018-01-28T19:01:55.689Z,31.77
2018-01-28T19:04:23.160Z,29.33
2018-01-28T19:06:50.628Z,34.83
2018-01-28T19:09:18.173Z,31.90
2018-01-28T19:11:45.618Z,34.20
2018-01-28T19:14:13.076Z,30.85
2018-01-28T19:16:40.585Z,37.20
2018-01-28T19:19:08.054Z,31.05
2018-01-28T19:21:35.590Z,28.70
2018-01-28T19:24:03.120Z,29.90
2018-01-28T19:26:30.803Z,32.10
2018-01-28T19:28:58.360Z,33.13
2018-01-28T19:31:25.852Z,31.55
2018-01-28T19:33:54.086Z,31.12
2018-01-28T19:36:21.566Z,30.53
2018-01-28T19:38:49.036Z,30.83
2018-01-28T19:41:16.504Z,33.30
2018-01-28T19:43:43.992Z,29.35
2018-01-28T19:46:12.284Z,32.72
2018-01-28T19:48:39.764Z,31.75
2018-01-28T19:51:08.011Z,30.37
2018-01-28T19:53:35.515Z,31.20
2018-01-28T19:56:03.755Z,31.42
2018-01-28T19:58:31.268Z,34.30
2018-01-28T20:00:58.841Z,31.62
2018-01-28T20:03:26.412Z,33.47
2018-01-28T20:05:53.906Z,30.80
2018-01-28T20:08:22.148Z,34.58
2018-01-28T20:10:49.692Z,31.90
2018-01-28T20:13:17.216Z,30.48
2018-01-28T20:15:44.779Z,31.03
2018-01-28T20:18:12.244Z,34.33
2018-01-28T20:20:39.713Z,28.65
2018-01-28T20:23:07.397Z,32.00
2018-01-28T20:25:34.989Z,30.37
2018-01-28T20:28:02.440Z,33.13
2018-01-28T20:30:29.912Z,29.15
2018-01-28T20:32:57.481Z,29.37
2018-01-28T20:35:25.105Z,29.27
2018-01-28T20:37:52.628Z,30.67
2018-01-28T20:40:20.196Z,27.13
2018-01-28T20:42:47.676Z,25.95
2018-01-28T20:45:15.145Z,28.25
2018-01-28T20:47:42.620Z,25.55
2018-01-28T20:50:10.175Z,28.77
2018-01-28T20:52:37.642Z,24.23
2018-01-28T20:55:05.573Z,28.05
2018-01-28T20:57:33.088Z,21.52
2018-01-28T21:00:00.572Z,25.30
2018-01-28T21:02:28.036Z,25.42
2018-01-28T21:04:55.509Z,23.83
2018-01-28T21:07:22.997Z,25.73
2018-01-28T21:09:50.548Z,23.85
2018-01-28T21:12:18.112Z,23.08
2018-01-28T21:14:45.689Z,26.25
2018-01-28T21:17:13.159Z,23.42
2018-01-28T21:19:40.732Z,22.83
2018-01-28T21:22:08.201Z,23.05
2018-01-28T21:24:35.661Z,24.75
2018-01-28T21:27:03.244Z,24.65
2018-01-28T21:29:30.816Z,26.77
2018-01-28T21:31:59.056Z,25.00
2018-01-28T21:34:26.576Z,27.13
2018-01-28T21:36:54.194Z,26.30
2018-01-28T21:39:22.425Z,26.45
2018-01-28T21:41:49.914Z,27.10
2018-01-28T21:44:17.380Z,24.75
2018-01-28T21:46:44.854Z,25.80
2018-01-28T21:49:12.332Z,24.15
2018-01-28T21:51:40.612Z,24.30
2018-01-28T21:54:08.271Z,25.62
2018-01-28T21:56:35.756Z,23.38
2018-01-28T21:59:03.234Z,21.77
2018-01-28T22:01:30.716Z,22.95
2018-01-28T22:03:59.079Z,22.73
2018-01-28T22:06:26.540Z,25.67
2018-01-28T22:08:54.014Z,23.02
2018-01-28T22:11:21.506Z,23.85
2018-01-28T22:13:49.780Z,22.13
2018-01-28T22:16:17.339Z,23.20
2018-01-28T22:18:44.812Z,22.87
2018-01-28T22:21:12.288Z,23.70
2018-01-28T22:23:39.771Z,25.05
2018-01-28T22:26:07.236Z,22.20
2018-01-28T22:28:34.791Z,23.12
2018-01-28T22:31:02.361Z,26.48
2018-01-28T22:33:29.828Z,23.30
2018-01-28T22:35:57.303Z,23.23
2018-01-28T22:38:24.796Z,23.55
2018-01-28T22:40:53.133Z,23.52
2018-01-28T22:43:20.608Z,21.48
2018-01-28T22:45:48.079Z,23.43
2018-01-28T22:48:15.581Z,23.77
2018-01-28T22:50:43.868Z,23.05
2018-01-28T22:53:11.434Z,22.80
2018-01-28T22:55:38.896Z,22.00
2018-01-28T22:58:06.477Z,22.00
2018-01-28T23:00:33.944Z,22.45
2018-01-28T23:03:01.410Z,21.12
2018-01-28T23:05:28.980Z,21.23
2018-01-28T23:07:56.448Z,20.62
2018-01-28T23:10:24.124Z,21.30
2018-01-28T23:12:51.698Z,22.85
2018-01-28T23:15:19.160Z,21.00
2018-01-28T23:17:46.788Z,21.20
2018-01-28T23:20:14.361Z,20.67
2018-01-28T23:22:41.891Z,20.80
2018-01-28T23:25:09.456Z,23.42
2018-01-28T23:27:36.924Z,22.70
2018-01-28T23:30:04.501Z,19.55
2018-01-28T23:32:32.175Z,21.87
2018-01-28T23:34:59.644Z,22.60
2018-01-28T23:37:27.112Z,20.55
2018-01-28T23:39:54.684Z,22.45
2018-01-28T23:42:22.163Z,21.60
2018-01-28T23:44:49.637Z,20.83
2018-01-28T23:47:17.195Z,22.25
2018-01-28T23:49:44.680Z,21.70
2018-01-28T23:52:12.180Z,22.75
2018-01-28T23:54:39.721Z,22.83
2018-01-28T23:57:07.192Z,22.42
2018-01-28T23:59:34.676Z,24.58
